Time;durP1;ratioP1;P1;durP2;ratioP2;P2;SDS_P1;SDS_P2;PMS_P1;PMS_P2;Temp;Humidity;BMP_temperature;BMP_pressure;BME280_temperature;BME280_humidity;BME280_pressure;Samples;Min_cycle;Max_cycle;Signal;HPM_P1;HPM_P2
2022/10/23 19:09:56;;;;;;;6.70;4.43;;;;;;;17.11;57.62;95339.97;5272418;23;20239;-81
2022/10/23 19:12:26;;;;;;;5.40;4.37;;;;;;;17.16;57.66;95352.41;4879681;29;20193;-83
2022/10/23 19:14:54;;;;;;;6.23;4.13;;;;;;;17.13;57.72;95348.34;4877552;29;20513;-81
2022/10/23 19:17:24;;;;;;;6.97;4.70;;;;;;;17.09;57.88;95343.69;4880723;29;20660;-82
2022/10/23 19:19:55;;;;;;;6.60;4.77;;;;;;;17.03;57.90;95345.13;4879877;29;20189;-80
2022/10/23 19:22:23;;;;;;;4.67;4.13;;;;;;;17.00;57.90;95338.50;4891924;29;20287;-82
2022/10/23 19:24:55;;;;;;;6.47;4.40;;;;;;;16.50;58.10;95263.72;4900928;29;20204;-82
2022/10/23 19:27:26;;;;;;;5.63;4.13;;;;;;;16.93;58.09;95334.97;4900940;29;20207;-81
2022/10/23 19:29:54;;;;;;;6.00;4.67;;;;;;;16.91;58.15;95329.13;4902475;29;20200;-81
2022/10/23 19:32:24;;;;;;;7.87;5.03;;;;;;;16.78;58.24;95323.63;4897226;29;20206;-82
2022/10/23 19:34:53;;;;;;;5.83;4.47;;;;;;;16.92;58.41;95351.41;4882490;29;20615;-82
2022/10/23 19:37:20;;;;;;;5.47;4.10;;;;;;;16.91;58.34;95351.59;4878348;29;20292;-82
2022/10/23 19:39:49;;;;;;;4.47;3.97;;;;;;;16.84;58.41;95348.00;4884295;29;20198;-82
2022/10/23 19:42:19;;;;;;;5.43;4.83;;;;;;;16.86;58.58;95359.81;4883772;29;20639;-83
2022/10/23 19:44:50;;;;;;;5.10;4.47;;;;;;;16.80;58.51;95363.06;4879187;29;20197;-81
2022/10/23 19:47:17;;;;;;;6.57;5.40;;;;;;;16.83;58.56;95365.28;4880964;29;20185;-79
2022/10/23 19:49:44;;;;;;;4.97;4.37;;;;;;;16.72;58.51;95356.09;4862021;29;20209;-79
2022/10/23 19:52:12;;;;;;;6.20;5.00;;;;;;;16.79;58.62;95369.16;4861152;29;20205;-78
2022/10/23 19:54:40;;;;;;;8.53;5.03;;;;;;;16.78;58.78;95368.34;4885396;29;20323;-78
2022/10/23 19:57:07;;;;;;;7.63;5.37;;;;;;;16.77;58.71;95371.91;4859927;29;20204;-83
2022/10/23 19:59:34;;;;;;;7.90;5.17;;;;;;;16.76;58.92;95366.91;4859883;29;20206;-81
2022/10/23 20:02:04;;;;;;;10.73;4.17;;;;;;;16.78;62.31;95368.34;4861306;29;20211;-81
2022/10/23 20:04:31;;;;;;;7.90;4.67;;;;;;;16.76;62.75;95354.81;4860351;29;20217;-84
2022/10/23 20:07:00;;;;;;;7.97;4.40;;;;;;;16.92;64.15;95366.91;4860104;29;20224;-82
2022/10/23 20:09:30;;;;;;;7.13;4.70;;;;;;;16.83;65.61;95354.97;4865333;29;20197;-80
2022/10/23 20:12:03;;;;;;;12.67;5.00;;;;;;;16.93;66.45;95368.56;4889216;29;20188;-78
2022/10/23 20:14:31;;;;;;;11.83;5.03;;;;;;;16.74;66.90;95346.38;4895963;29;20223;-80
2022/10/23 20:16:58;;;;;;;7.03;4.40;;;;;;;16.87;66.98;95364.00;4896281;29;20188;-84
2022/10/23 20:19:27;;;;;;;9.83;5.00;;;;;;;16.88;66.66;95369.97;4896396;29;20688;-82
2022/10/23 20:21:54;;;;;;;5.33;4.73;;;;;;;16.78;66.48;95360.59;4896622;29;20268;-79
2022/10/23 20:24:21;;;;;;;8.03;4.43;;;;;;;16.73;66.43;95346.56;4894623;29;20195;-76
2022/10/23 20:26:51;;;;;;;7.47;5.07;;;;;;;16.79;66.17;95356.25;4896045;29;20200;-77
2022/10/23 20:29:18;;;;;;;9.03;3.80;;;;;;;16.70;66.05;95350.22;4895582;29;20193;-79
2022/10/23 20:31:45;;;;;;;12.23;5.10;;;;;;;16.71;65.80;95354.44;4895757;29;20207;-77
2022/10/23 20:34:12;;;;;;;7.73;4.97;;;;;;;16.69;65.72;95352.97;4896742;29;20204;-86
2022/10/23 20:36:44;;;;;;;7.83;5.13;;;;;;;16.64;65.61;95353.47;4898140;29;20219;-82
2022/10/23 20:39:13;;;;;;;8.23;4.90;;;;;;;16.61;65.44;95356.34;4880537;29;20213;-81
2022/10/23 20:41:40;;;;;;;7.20;5.10;;;;;;;16.46;65.66;95343.25;4859392;29;20194;-82
2022/10/23 20:44:10;;;;;;;8.63;4.97;;;;;;;16.50;65.69;95359.25;4862728;29;20211;-84
2022/10/23 20:46:37;;;;;;;7.00;4.97;;;;;;;16.30;65.49;95325.94;4876746;29;20209;-84
2022/10/23 20:49:04;;;;;;;6.83;5.07;;;;;;;16.37;65.25;95344.19;4859202;29;20224;-83
2022/10/23 20:51:31;;;;;;;7.13;4.43;;;;;;;16.46;65.19;95360.53;4895828;29;20641;-80
2022/10/23 20:53:59;;;;;;;8.87;4.67;;;;;;;16.60;72.34;95366.84;4889964;29;20200;-79
2022/10/23 20:56:29;;;;;;;8.97;5.67;;;;;;;16.65;72.26;95367.19;4888515;29;20228;-80
2022/10/23 20:58:57;;;;;;;10.63;5.33;;;;;;;16.55;73.78;95360.38;4878876;29;20192;-79
2022/10/23 21:01:25;;;;;;;10.43;6.17;;;;;;;16.63;75.13;95369.13;4879895;29;20193;-80
2022/10/23 21:03:54;;;;;;;8.23;5.03;;;;;;;16.60;76.27;95374.59;4883960;29;20190;-81
2022/10/23 21:06:22;;;;;;;9.23;6.07;;;;;;;16.56;77.19;95368.94;4890852;29;20201;-80
2022/10/23 21:08:49;;;;;;;8.50;5.00;;;;;;;16.52;77.86;95362.47;4889806;29;20193;-80
2022/10/23 21:11:17;;;;;;;7.27;5.23;;;;;;;16.46;78.73;95366.50;4897938;29;20225;-81
2022/10/23 21:13:45;;;;;;;10.00;5.80;;;;;;;16.35;79.34;95348.69;4898083;29;20196;-79
2022/10/23 21:16:14;;;;;;;9.13;4.87;;;;;;;16.29;79.57;95339.00;4897813;29;20677;-81
2022/10/23 21:18:41;;;;;;;9.10;5.17;;;;;;;16.33;79.74;95349.84;4897893;29;20203;-79
2022/10/23 21:21:08;;;;;;;9.63;4.90;;;;;;;16.20;80.20;95348.50;4897568;29;20204;-79
2022/10/23 21:23:36;;;;;;;6.70;5.37;;;;;;;16.15;80.47;95342.16;4897294;29;20192;-81
2022/10/23 21:26:03;;;;;;;9.50;5.53;;;;;;;16.18;80.61;95357.34;4897248;29;20192;-80
2022/10/23 21:28:33;;;;;;;9.73;5.53;;;;;;;16.13;81.01;95354.44;4897632;29;20193;-81
2022/10/23 21:31:03;;;;;;;10.33;5.53;;;;;;;16.08;81.16;95357.47;4897436;29;20193;-80
2022/10/23 21:33:30;;;;;;;9.27;6.17;;;;;;;16.04;81.47;95359.56;4897488;29;20269;-79
2022/10/23 21:35:57;;;;;;;8.10;5.67;;;;;;;16.01;81.90;95361.63;4896952;29;20707;-80
2022/10/23 21:38:24;;;;;;;9.40;5.83;;;;;;;15.91;82.04;95350.63;4896639;29;20601;-80
2022/10/23 21:40:51;;;;;;;9.53;6.43;;;;;;;15.92;82.12;95358.22;4891307;29;20200;-82
2022/10/23 21:43:18;;;;;;;8.23;6.13;;;;;;;15.89;82.48;95360.28;4878581;29;20203;-80
2022/10/23 21:45:46;;;;;;;7.67;5.53;;;;;;;15.84;82.66;95357.34;4878691;29;20201;-79
2022/10/23 21:48:13;;;;;;;8.33;6.07;;;;;;;15.73;82.93;95348.13;4878552;29;20245;-78
2022/10/23 21:50:40;;;;;;;7.90;6.07;;;;;;;15.76;83.08;95353.00;4878565;29;20205;-79
2022/10/23 21:53:06;;;;;;;9.03;5.60;;;;;;;15.65;83.22;95343.72;4895689;29;20200;-79
2022/10/23 21:55:33;;;;;;;11.00;6.60;;;;;;;15.65;83.18;95353.25;4896484;29;20232;-80
2022/10/23 21:58:00;;;;;;;7.63;5.87;;;;;;;15.62;83.48;95362.03;4896488;29;20200;-79
2022/10/23 22:00:27;;;;;;;7.47;6.20;;;;;;;15.63;83.86;95365.44;4897015;29;20192;-80
2022/10/23 22:02:55;;;;;;;7.03;5.80;;;;;;;15.60;83.99;95368.31;4895304;29;20189;-81
2022/10/23 22:05:22;;;;;;;9.50;5.87;;;;;;;15.55;84.13;95368.78;4897397;29;20200;-80
2022/10/23 22:07:49;;;;;;;10.83;6.80;;;;;;;15.49;84.56;95371.94;4889020;29;20196;-78
2022/10/23 22:10:16;;;;;;;7.23;6.47;;;;;;;15.27;84.55;95340.56;4896316;29;20241;-83
2022/10/23 22:12:43;;;;;;;10.23;6.63;;;;;;;15.47;84.81;95377.25;4895079;29;20194;-82
2022/10/23 22:15:10;;;;;;;8.50;6.53;;;;;;;15.35;84.82;95360.41;4896899;29;20236;-83
2022/10/23 22:17:37;;;;;;;10.03;6.73;;;;;;;15.41;84.78;95374.47;4896680;29;20196;-80
2022/10/23 22:20:07;;;;;;;8.13;6.03;;;;;;;15.39;85.22;95371.25;4896528;29;20196;-80
2022/10/23 22:22:34;;;;;;;8.00;6.57;;;;;;;15.36;85.31;95374.13;4878668;29;20204;-82
2022/10/23 22:25:02;;;;;;;8.23;6.73;;;;;;;15.34;85.28;95370.91;4878905;29;20693;-79
2022/10/23 22:27:29;;;;;;;9.13;6.90;;;;;;;15.30;85.90;95367.81;4878016;29;20193;-81
2022/10/23 22:29:57;;;;;;;9.40;6.37;;;;;;;15.28;85.69;95378.28;4877456;29;20200;-84
2022/10/23 22:32:24;;;;;;;11.00;7.17;;;;;;;15.25;85.96;95378.56;4878009;29;20201;-80
2022/10/23 22:34:51;;;;;;;13.57;7.70;;;;;;;15.19;86.03;95368.03;4884691;29;20188;-79
2022/10/23 22:37:19;;;;;;;10.73;7.20;;;;;;;15.19;86.04;95365.44;4896445;29;20185;-82
2022/10/23 22:39:46;;;;;;;9.33;6.70;;;;;;;15.19;86.29;95376.56;4896117;29;20195;-80
2022/10/23 22:42:13;;;;;;;10.50;6.60;;;;;;;15.17;86.42;95375.91;4896189;29;20192;-79
2022/10/23 22:44:40;;;;;;;9.70;6.73;;;;;;;15.15;86.75;95377.81;4894175;29;20223;-81
2022/10/23 22:47:07;;;;;;;7.57;6.77;;;;;;;15.13;86.62;95372.00;4896039;29;20196;-79
2022/10/23 22:49:34;;;;;;;11.10;6.93;;;;;;;15.11;86.74;95381.69;4887357;29;20186;-80
2022/10/23 22:52:00;;;;;;;13.83;7.63;;;;;;;15.09;87.10;95378.41;4877173;29;20224;-80
2022/10/23 22:54:30;;;;;;;10.27;7.10;;;;;;;15.01;87.05;95368.84;4878504;29;20208;-85
2022/10/23 22:56:56;;;;;;;9.90;7.37;;;;;;;14.83;87.02;95349.22;4877946;29;20221;-82
2022/10/23 22:59:23;;;;;;;8.50;6.73;;;;;;;15.04;87.18;95383.22;4876996;29;20197;-81
2022/10/23 23:01:51;;;;;;;10.37;7.40;;;;;;;14.82;87.45;95347.59;4877162;29;20204;-79
2022/10/23 23:04:18;;;;;;;9.83;7.40;;;;;;;15.01;87.49;95386.06;4888840;29;20193;-83
2022/10/23 23:06:46;;;;;;;10.80;7.33;;;;;;;14.98;87.73;95379.47;4908304;29;20192;-79
2022/10/23 23:09:13;;;;;;;9.93;7.30;;;;;;;14.98;87.69;95388.94;4896491;29;20189;-78
2022/10/23 23:11:42;;;;;;;11.53;7.57;;;;;;;14.94;88.00;95388.44;4883277;29;20685;-80
2022/10/23 23:14:09;;;;;;;12.43;7.97;;;;;;;14.92;88.01;95381.81;4877130;29;20201;-80
2022/10/23 23:16:36;;;;;;;10.87;7.90;;;;;;;14.85;88.13;95371.28;4889798;29;20224;-79
2022/10/23 23:19:04;;;;;;;11.43;8.20;;;;;;;14.91;88.04;95381.00;4878599;29;20304;-84
2022/10/23 23:21:31;;;;;;;14.30;7.87;;;;;;;14.91;88.19;95375.06;4877026;29;20203;-80
2022/10/23 23:23:58;;;;;;;8.90;7.27;;;;;;;14.89;88.23;95377.75;4877598;29;20200;-80
2022/10/23 23:26:25;;;;;;;11.80;7.87;;;;;;;14.81;88.25;95375.13;4878013;29;20200;-82
2022/10/23 23:28:54;;;;;;;9.63;7.37;;;;;;;14.86;88.46;95388.38;4886903;29;20196;-81
2022/10/23 23:31:23;;;;;;;14.97;7.37;;;;;;;14.86;88.38;95387.56;4895666;29;20210;-80
2022/10/23 23:33:50;;;;;;;11.67;7.80;;;;;;;14.65;88.44;95354.38;4895258;29;20197;-80
2022/10/23 23:36:20;;;;;;;8.13;6.80;;;;;;;14.84;88.60;95385.13;4895891;29;20238;-81
2022/10/23 23:38:47;;;;;;;11.00;7.77;;;;;;;14.82;88.77;95378.50;4894603;29;20580;-79
2022/10/23 23:41:15;;;;;;;12.40;8.07;;;;;;;14.81;88.96;95377.72;4896863;29;20680;-79
2022/10/23 23:43:43;;;;;;;8.37;7.27;;;;;;;14.80;89.02;95374.28;4896555;29;20287;-78
2022/10/23 23:46:11;;;;;;;14.20;7.67;;;;;;;14.76;89.14;95364.44;4902165;29;20193;-83
2022/10/23 23:48:38;;;;;;;10.33;7.40;;;;;;;14.74;89.02;95364.59;4879133;29;20200;-80
2022/10/23 23:51:06;;;;;;;11.67;8.00;;;;;;;14.66;89.00;95353.41;4878279;29;20235;-80
2022/10/23 23:53:33;;;;;;;10.60;7.77;;;;;;;14.57;89.10;95337.06;4877004;29;20197;-79
2022/10/23 23:55:59;;;;;;;15.87;7.70;;;;;;;14.73;89.21;95370.72;4877491;29;20231;-82
2022/10/23 23:58:26;;;;;;;10.27;7.80;;;;;;;14.66;89.42;95358.56;4876616;29;20699;-83
